Time;durP1;ratioP1;P1;durP2;ratioP2;P2;SDS_P1;SDS_P2;PMS_P1;PMS_P2;Temp;Humidity;BMP_temperature;BMP_pressure;BME280_temperature;BME280_humidity;BME280_pressure;Samples;Min_cycle;Max_cycle;Signal;HPM_P1;HPM_P2
2022/03/07 00:01:47;;;;;;;12.27;7.85;;;;;;;-2.80;100.00;102679.13;5012078;28;20232;-41
2022/03/07 00:04:16;;;;;;;9.93;7.85;;;;;;;-2.96;100.00;102673.16;5011991;28;20554;-44
2022/03/07 00:06:42;;;;;;;10.63;6.90;;;;;;;-3.02;100.00;102679.84;5012373;28;20226;-42
2022/03/07 00:09:08;;;;;;;9.27;7.40;;;;;;;-2.95;100.00;102684.59;5012226;28;20201;-43
2022/03/07 00:11:35;;;;;;;10.02;7.35;;;;;;;-2.88;100.00;102680.53;5011780;28;20168;-42
2022/03/07 00:14:01;;;;;;;8.60;6.90;;;;;;;-2.80;100.00;102666.94;5011758;28;20752;-42
2022/03/07 00:16:26;;;;;;;12.02;7.32;;;;;;;-2.76;100.00;102679.34;5011592;28;20173;-41
2022/03/07 00:18:52;;;;;;;7.82;6.97;;;;;;;-2.78;100.00;102675.75;5011900;28;20182;-44
2022/03/07 00:21:18;;;;;;;9.57;7.55;;;;;;;-2.90;100.00;102683.94;5011753;28;20196;-41
2022/03/07 00:23:43;;;;;;;12.60;7.78;;;;;;;-2.95;100.00;102676.72;5010077;28;20258;-44
2022/03/07 00:26:09;;;;;;;11.68;7.60;;;;;;;-2.97;100.00;102695.00;5011806;28;20180;-44
2022/03/07 00:28:35;;;;;;;12.38;7.70;;;;;;;-3.01;100.00;102690.41;5011602;28;20164;-42
2022/03/07 00:31:01;;;;;;;9.65;7.30;;;;;;;-2.89;100.00;102692.72;5011601;28;20177;-44
2022/03/07 00:33:27;;;;;;;12.05;7.82;;;;;;;-2.92;100.00;102696.09;5011466;28;20219;-41
2022/03/07 00:35:52;;;;;;;11.35;7.80;;;;;;;-2.91;100.00;102697.91;5010016;28;20180;-43
2022/03/07 00:38:18;;;;;;;10.07;7.47;;;;;;;-2.90;100.00;102704.03;5011576;28;20185;-43
2022/03/07 00:40:46;;;;;;;8.80;6.75;;;;;;;-2.87;100.00;102706.78;5011212;28;20707;-43
2022/03/07 00:43:11;;;;;;;10.48;6.93;;;;;;;-2.84;100.00;102720.06;5010924;28;20295;-41
2022/03/07 00:45:38;;;;;;;9.80;7.03;;;;;;;-2.86;100.00;102716.47;5010015;28;20255;-43
2022/03/07 00:48:04;;;;;;;8.50;6.40;;;;;;;-2.97;100.00;102705.47;5009586;28;20268;-43
2022/03/07 00:50:30;;;;;;;10.23;7.00;;;;;;;-3.03;100.00;102712.16;5011179;28;20164;-42
2022/03/07 00:52:56;;;;;;;10.00;7.07;;;;;;;-2.95;100.00;102726.53;5009124;28;20212;-43
2022/03/07 00:55:22;;;;;;;9.23;7.43;;;;;;;-2.97;100.00;102723.84;5010751;28;20177;-43
2022/03/07 00:57:47;;;;;;;9.77;6.38;;;;;;;-2.96;100.00;102720.38;5010023;28;20174;-44
2022/03/07 01:00:12;;;;;;;10.45;7.45;;;;;;;-2.90;100.00;102725.03;5011038;28;20632;-41
2022/03/07 01:02:40;;;;;;;10.10;6.97;;;;;;;-3.00;99.87;102722.78;5009037;28;20236;-44
2022/03/07 01:05:07;;;;;;;10.68;7.10;;;;;;;-2.96;99.94;102720.38;5010535;28;20173;-43
2022/03/07 01:07:32;;;;;;;9.20;6.57;;;;;;;-3.00;99.79;102722.78;5009180;28;20201;-44
2022/03/07 01:09:58;;;;;;;8.85;6.10;;;;;;;-2.95;100.00;102716.06;5010950;28;20284;-43
2022/03/07 01:12:23;;;;;;;7.88;6.35;;;;;;;-2.94;99.54;102717.84;5010076;28;20362;-43
2022/03/07 01:14:49;;;;;;;7.78;5.95;;;;;;;-2.92;99.58;102729.31;5009134;28;20739;-44
2022/03/07 01:17:14;;;;;;;8.77;6.32;;;;;;;-2.95;99.23;102727.44;5010818;28;20181;-43
2022/03/07 01:19:40;;;;;;;10.15;6.25;;;;;;;-2.98;99.45;102731.63;5010324;28;20219;-43
2022/03/07 01:22:06;;;;;;;8.70;6.88;;;;;;;-2.98;98.94;102729.00;5009796;28;20342;-43
2022/03/07 01:24:32;;;;;;;8.18;6.55;;;;;;;-3.03;99.17;102727.88;5009662;28;20264;-43
2022/03/07 01:26:57;;;;;;;9.13;6.80;;;;;;;-3.04;98.65;102729.63;5009825;28;20165;-44
2022/03/07 01:29:23;;;;;;;7.05;5.55;;;;;;;-3.04;99.12;102732.25;5009838;28;20187;-42
2022/03/07 01:31:51;;;;;;;7.97;5.80;;;;;;;-3.15;98.90;102728.19;5008315;28;20270;-47
2022/03/07 01:34:16;;;;;;;8.68;6.13;;;;;;;-3.24;98.50;102733.88;5010339;28;20233;-46
2022/03/07 01:36:42;;;;;;;6.63;5.53;;;;;;;-3.16;98.87;102731.63;5010089;28;20231;-47
2022/03/07 01:39:07;;;;;;;7.72;5.45;;;;;;;-3.10;99.02;102726.69;5009715;28;20312;-45
2022/03/07 01:41:33;;;;;;;5.80;4.85;;;;;;;-3.16;99.34;102722.03;5009910;28;20291;-46
2022/03/07 01:43:58;;;;;;;8.18;5.60;;;;;;;-3.29;98.76;102718.75;5009415;28;20223;-45
2022/03/07 01:46:24;;;;;;;11.25;6.07;;;;;;;-3.51;99.58;102709.84;5010147;28;20541;-46
2022/03/07 01:48:50;;;;;;;8.43;6.00;;;;;;;-3.52;99.97;102705.41;5010451;28;20161;-46
2022/03/07 01:51:16;;;;;;;8.15;5.78;;;;;;;-3.57;100.00;102707.81;5009494;28;20690;-47
2022/03/07 01:53:44;;;;;;;7.07;5.78;;;;;;;-3.45;100.00;102702.28;5008373;28;20183;-45
2022/03/07 01:56:12;;;;;;;11.90;5.85;;;;;;;-3.42;100.00;102699.81;5008368;28;20258;-46
2022/03/07 01:58:38;;;;;;;6.95;5.40;;;;;;;-3.48;100.00;102696.88;5010139;28;20165;-49
2022/03/07 02:01:03;;;;;;;7.00;5.93;;;;;;;-3.39;100.00;102691.19;5010045;28;20176;-46
2022/03/07 02:03:29;;;;;;;7.03;5.60;;;;;;;-3.34;100.00;102690.59;5007123;28;20208;-46
2022/03/07 02:05:54;;;;;;;9.90;6.28;;;;;;;-3.33;100.00;102681.00;5009928;28;20239;-47
2022/03/07 02:08:24;;;;;;;7.28;5.78;;;;;;;-3.43;100.00;102689.25;5008397;28;20267;-47
2022/03/07 02:10:54;;;;;;;6.70;5.95;;;;;;;-3.54;100.00;102692.25;5008460;28;20539;-45
2022/03/07 02:13:20;;;;;;;7.50;5.85;;;;;;;-3.48;100.00;102685.50;5007638;28;20204;-47
2022/03/07 02:15:57;;;;;;;7.13;5.40;;;;;;;-3.43;100.00;102697.09;5008030;28;20160;-46
2022/03/07 02:18:29;;;;;;;7.03;5.65;;;;;;;-3.42;100.00;102681.47;5008308;28;20333;-46
2022/03/07 02:21:04;;;;;;;8.32;6.45;;;;;;;-3.47;100.00;102690.84;5009662;28;20251;-46
2022/03/07 02:23:30;;;;;;;8.85;6.38;;;;;;;-3.47;100.00;102687.31;5009309;28;20208;-47
2022/03/07 02:25:56;;;;;;;8.68;5.80;;;;;;;-3.48;100.00;102701.22;5008386;28;20643;-46
2022/03/07 02:28:21;;;;;;;10.23;6.57;;;;;;;-3.51;100.00;102694.13;5009751;28;20604;-47
2022/03/07 02:30:50;;;;;;;7.53;5.63;;;;;;;-3.50;100.00;102693.28;5009692;28;20278;-45
2022/03/07 02:33:16;;;;;;;6.95;5.88;;;;;;;-3.63;100.00;102697.03;5008496;28;20197;-47
2022/03/07 02:35:43;;;;;;;8.55;5.75;;;;;;;-3.63;100.00;102697.03;4999264;28;20181;-44
2022/03/07 02:38:14;;;;;;;7.72;5.90;;;;;;;-3.64;100.00;102696.94;5008079;28;20610;-49
2022/03/07 02:40:42;;;;;;;8.05;5.55;;;;;;;-3.65;100.00;102700.38;5011865;28;20177;-46
2022/03/07 02:43:09;;;;;;;9.25;6.38;;;;;;;-3.65;100.00;102711.78;5009851;28;20694;-46
2022/03/07 02:45:34;;;;;;;7.05;5.32;;;;;;;-3.64;100.00;102708.31;5011572;28;20189;-47
2022/03/07 02:48:00;;;;;;;6.80;5.72;;;;;;;-3.65;100.00;102698.69;5011429;28;20179;-45
2022/03/07 02:50:25;;;;;;;7.88;5.97;;;;;;;-3.61;100.00;102699.72;5011764;28;20182;-45
2022/03/07 02:52:51;;;;;;;6.53;5.45;;;;;;;-3.56;100.00;102706.09;5012054;28;20207;-47
2022/03/07 02:55:16;;;;;;;7.60;6.40;;;;;;;-3.58;100.00;102713.88;5012888;28;20177;-47
2022/03/07 02:57:42;;;;;;;8.15;5.80;;;;;;;-3.57;100.00;102707.81;5013310;28;20597;-46
2022/03/07 03:00:09;;;;;;;6.85;5.22;;;;;;;-3.54;100.00;102707.97;5013098;28;20584;-46
2022/03/07 03:02:34;;;;;;;8.38;6.15;;;;;;;-3.52;100.00;102710.66;5012168;28;20230;-46
2022/03/07 03:05:00;;;;;;;8.45;6.43;;;;;;;-3.60;100.00;102714.63;5012690;28;20192;-46
2022/03/07 03:07:25;;;;;;;6.80;5.82;;;;;;;-3.63;100.00;102710.13;5012962;28;20165;-45
2022/03/07 03:09:51;;;;;;;9.15;5.72;;;;;;;-3.65;100.00;102710.84;5011613;28;20195;-45
2022/03/07 03:12:16;;;;;;;8.60;5.60;;;;;;;-3.60;100.00;102706.78;5012319;28;20647;-47
2022/03/07 03:14:42;;;;;;;8.48;5.60;;;;;;;-3.56;100.00;102708.72;5011233;28;20263;-45
2022/03/07 03:17:07;;;;;;;9.75;6.55;;;;;;;-3.61;100.00;102708.50;5012632;28;20226;-44
2022/03/07 03:19:33;;;;;;;6.70;5.32;;;;;;;-3.56;100.00;102706.09;5012830;28;20252;-45
2022/03/07 03:21:59;;;;;;;7.32;5.38;;;;;;;-3.56;100.00;102701.75;5011971;28;20216;-46
2022/03/07 03:24:24;;;;;;;7.95;5.47;;;;;;;-3.56;100.00;102706.09;5012431;28;20542;-45
2022/03/07 03:26:49;;;;;;;7.05;6.00;;;;;;;-3.59;100.00;102704.19;5012302;28;20356;-45
2022/03/07 03:29:15;;;;;;;7.88;6.10;;;;;;;-3.56;100.00;102698.25;5012550;28;20555;-46
2022/03/07 03:31:40;;;;;;;7.78;5.90;;;;;;;-3.57;100.00;102704.28;5011832;28;20209;-44
2022/03/07 03:34:06;;;;;;;9.40;6.43;;;;;;;-3.55;100.00;102708.78;5012161;28;20176;-46
2022/03/07 03:36:31;;;;;;;8.73;6.18;;;;;;;-3.66;100.00;102714.31;5012128;28;20695;-45
2022/03/07 03:38:57;;;;;;;9.30;5.35;;;;;;;-3.63;100.00;102699.66;5012423;28;20177;-46
2022/03/07 03:41:22;;;;;;;8.25;5.72;;;;;;;-3.60;100.00;102698.91;5011989;28;20235;-45
2022/03/07 03:43:47;;;;;;;5.70;5.10;;;;;;;-3.60;100.00;102706.78;5011472;28;20204;-46
2022/03/07 03:46:13;;;;;;;7.07;5.65;;;;;;;-3.59;100.00;102698.06;5012294;28;20181;-47
2022/03/07 03:48:38;;;;;;;8.18;5.32;;;;;;;-3.59;100.00;102704.19;5010708;28;20220;-46
2022/03/07 03:51:03;;;;;;;6.85;5.68;;;;;;;-3.61;100.00;102704.94;5012031;28;20659;-46
2022/03/07 03:53:29;;;;;;;7.80;5.82;;;;;;;-3.60;100.00;102698.91;5011406;28;20196;-45
2022/03/07 03:55:54;;;;;;;7.68;5.93;;;;;;;-3.64;100.00;102705.72;5012146;28;20167;-44
2022/03/07 03:58:20;;;;;;;6.85;5.72;;;;;;;-3.61;100.00;102711.13;5011922;28;20251;-47
2022/03/07 04:00:45;;;;;;;7.35;5.85;;;;;;;-3.62;100.00;102706.69;5012065;28;20215;-47
2022/03/07 04:03:11;;;;;;;6.95;5.60;;;;;;;-3.62;99.85;102705.78;5011655;28;20211;-47
2022/03/07 04:05:36;;;;;;;8.95;5.68;;;;;;;-3.76;100.00;102691.97;5012177;28;20248;-49
2022/03/07 04:08:02;;;;;;;6.47;5.30;;;;;;;-3.75;99.95;102697.31;5011727;28;20173;-47
2022/03/07 04:10:27;;;;;;;7.97;5.75;;;;;;;-3.83;99.69;102702.97;5011853;28;20181;-46
2022/03/07 04:12:53;;;;;;;7.70;5.80;;;;;;;-3.94;100.00;102694.56;5011061;28;20188;-45
2022/03/07 04:15:18;;;;;;;8.57;5.80;;;;;;;-3.89;100.00;102705.28;5011780;28;20586;-45
2022/03/07 04:17:44;;;;;;;6.30;5.55;;;;;;;-3.81;100.00;102707.47;5011730;28;20184;-46
2022/03/07 04:20:11;;;;;;;10.30;6.28;;;;;;;-3.96;100.00;102710.22;5010833;28;20185;-46
2022/03/07 04:22:37;;;;;;;6.60;5.20;;;;;;;-3.90;100.00;102704.38;5010814;28;20294;-46
2022/03/07 04:25:04;;;;;;;8.80;5.82;;;;;;;-3.78;100.00;102698.91;5010187;28;20177;-45
2022/03/07 04:27:29;;;;;;;6.90;5.63;;;;;;;-3.76;100.00;102695.53;5011681;28;20577;-45
2022/03/07 04:29:55;;;;;;;8.40;6.18;;;;;;;-3.78;100.00;102694.53;5011518;28;20275;-46
2022/03/07 04:32:21;;;;;;;7.88;5.85;;;;;;;-3.75;100.00;102693.78;5010203;28;20200;-46
2022/03/07 04:34:47;;;;;;;8.65;6.80;;;;;;;-3.75;100.00;102707.78;5009906;28;20179;-44
2022/03/07 04:37:12;;;;;;;7.00;5.65;;;;;;;-3.74;100.00;102720.06;5010905;28;20181;-46
2022/03/07 04:39:38;;;;;;;8.52;5.45;;;;;;;-3.79;100.00;102721.53;5011058;28;20194;-46
2022/03/07 04:42:03;;;;;;;7.05;5.85;;;;;;;-3.79;100.00;102715.41;5009472;28;20291;-45
2022/03/07 04:44:29;;;;;;;7.45;6.25;;;;;;;-3.80;100.00;102722.38;5010419;28;20706;-46
2022/03/07 04:46:54;;;;;;;7.55;5.97;;;;;;;-3.82;100.00;102717.88;5009174;28;20238;-45
2022/03/07 04:49:19;;;;;;;6.82;5.43;;;;;;;-3.80;100.00;102725.00;5010884;28;20645;-45
2022/03/07 04:51:46;;;;;;;7.28;5.93;;;;;;;-3.76;100.00;102728.66;5010280;28;20745;-46
2022/03/07 04:54:13;;;;;;;7.22;5.78;;;;;;;-3.76;100.00;102731.25;5011118;28;20195;-46
2022/03/07 04:56:45;;;;;;;7.43;5.88;;;;;;;-3.87;100.00;102722.91;5010784;28;20179;-44
2022/03/07 04:59:12;;;;;;;8.93;6.00;;;;;;;-3.89;100.00;102732.38;5010549;28;20225;-46
2022/03/07 05:01:37;;;;;;;8.23;5.63;;;;;;;-3.88;100.00;102731.56;5009686;28;20165;-47
2022/03/07 05:04:03;;;;;;;6.75;6.05;;;;;;;-3.91;100.00;102735.72;5008892;28;20214;-47
2022/03/07 05:06:28;;;;;;;6.78;5.70;;;;;;;-3.95;100.00;102734.69;5010725;28;20247;-45
2022/03/07 05:08:54;;;;;;;10.13;5.90;;;;;;;-3.94;100.00;102734.78;5009443;28;20243;-44
2022/03/07 05:11:19;;;;;;;8.60;5.82;;;;;;;-3.89;100.00;102747.16;5010952;28;20255;-43
2022/03/07 05:13:45;;;;;;;6.63;5.55;;;;;;;-4.06;100.00;102739.34;5010391;28;20249;-46
2022/03/07 05:16:11;;;;;;;7.55;5.82;;;;;;;-4.14;100.00;102741.56;5010550;28;20195;-46
2022/03/07 05:18:36;;;;;;;7.78;5.60;;;;;;;-4.01;100.00;102743.09;5010706;28;20203;-43
2022/03/07 05:21:01;;;;;;;6.88;5.72;;;;;;;-3.97;100.00;102746.78;5010052;28;20576;-46
2022/03/07 05:23:27;;;;;;;6.90;6.20;;;;;;;-3.97;100.00;102762.50;5009789;28;20724;-43
2022/03/07 05:25:52;;;;;;;8.10;5.38;;;;;;;-3.92;100.00;102757.50;5010443;28;20192;-45
2022/03/07 05:28:18;;;;;;;11.45;9.82;;;;;;;-3.94;100.00;102758.34;5133802;22;20220;-41
2022/03/07 05:30:44;;;;;;;6.70;6.00;;;;;;;-3.94;100.00;102768.81;5006284;28;20245;-43
2022/03/07 05:33:09;;;;;;;8.82;5.95;;;;;;;-3.92;100.00;102750.53;4991781;28;20205;-43
2022/03/07 05:35:34;;;;;;;8.98;6.20;;;;;;;-3.95;100.00;102750.38;4990604;28;20255;-41
2022/03/07 05:38:00;;;;;;;8.07;5.57;;;;;;;-3.89;100.00;102741.94;4990987;28;20269;-43
2022/03/07 05:40:26;;;;;;;8.48;6.63;;;;;;;-3.97;100.00;102741.56;4990489;28;20180;-45
2022/03/07 05:42:51;;;;;;;9.82;6.97;;;;;;;-4.03;100.00;102744.75;4989947;28;20758;-44
2022/03/07 05:45:16;;;;;;;6.75;5.25;;;;;;;-3.95;100.00;102732.97;4990064;28;20176;-47
2022/03/07 05:47:42;;;;;;;7.43;5.75;;;;;;;-3.91;100.00;102743.56;4989878;28;20181;-47
2022/03/07 05:50:09;;;;;;;9.02;6.53;;;;;;;-3.97;100.00;102733.69;4990098;28;20251;-46
2022/03/07 05:52:35;;;;;;;8.73;6.10;;;;;;;-3.96;100.00;102735.47;4989443;28;20231;-46
2022/03/07 05:55:02;;;;;;;7.30;6.40;;;;;;;-3.96;100.00;102732.88;4990220;28;20165;-46
2022/03/07 05:57:27;;;;;;;9.25;6.43;;;;;;;-3.92;100.00;102726.97;4989754;28;20220;-45
2022/03/07 05:59:52;;;;;;;8.82;6.28;;;;;;;-4.04;100.00;102718.50;4990052;28;20173;-47
2022/03/07 06:02:18;;;;;;;7.32;6.50;;;;;;;-4.13;100.00;102729.41;4989136;28;20295;-46
2022/03/07 06:04:44;;;;;;;7.80;6.97;;;;;;;-4.09;100.00;102733.94;4989816;28;20663;-47
2022/03/07 06:07:09;;;;;;;9.57;7.00;;;;;;;-4.11;100.00;102725.16;4989818;28;20169;-44
2022/03/07 06:09:35;;;;;;;7.95;6.47;;;;;;;-4.09;100.00;102719.97;4989621;28;20169;-45
2022/03/07 06:12:00;;;;;;;7.53;6.25;;;;;;;-4.02;100.00;102714.25;4989374;28;20199;-44
2022/03/07 06:14:26;;;;;;;7.20;5.88;;;;;;;-3.97;100.00;102715.38;4989563;28;20268;-45
2022/03/07 06:16:51;;;;;;;8.43;6.10;;;;;;;-3.98;100.00;102719.72;4990050;28;20181;-43
2022/03/07 06:19:16;;;;;;;6.68;5.30;;;;;;;-3.89;100.00;102728.84;4989462;28;20173;-47
2022/03/07 06:21:42;;;;;;;10.73;5.93;;;;;;;-3.89;100.00;102723.59;4989273;28;20201;-45
2022/03/07 06:24:08;;;;;;;7.22;6.53;;;;;;;-3.88;100.00;102721.06;4989665;28;20196;-45
2022/03/07 06:26:35;;;;;;;8.73;6.35;;;;;;;-3.85;100.00;102721.22;4989465;28;20185;-46
2022/03/07 06:29:02;;;;;;;7.60;6.80;;;;;;;-3.83;100.00;102719.56;4989537;28;20623;-48
2022/03/07 06:31:27;;;;;;;10.00;7.07;;;;;;;-3.89;100.00;102718.38;4988859;28;20536;-45
2022/03/07 06:33:52;;;;;;;11.35;6.57;;;;;;;-3.80;100.00;102726.72;4989401;28;20174;-47
2022/03/07 06:36:18;;;;;;;10.23;6.40;;;;;;;-3.68;100.00;102734.28;4989423;28;20207;-45
2022/03/07 06:38:43;;;;;;;8.27;6.47;;;;;;;-3.60;100.00;102725.09;4989763;28;20633;-46
2022/03/07 06:41:09;;;;;;;7.90;6.00;;;;;;;-3.49;100.00;102723.91;4990067;28;20260;-46
2022/03/07 06:43:34;;;;;;;9.15;6.75;;;;;;;-3.49;100.00;102730.88;5003568;28;20320;-48
2022/03/07 06:46:01;;;;;;;8.43;6.40;;;;;;;-3.46;100.00;102721.44;4989602;28;20597;-46
2022/03/07 06:48:26;;;;;;;8.90;6.47;;;;;;;-3.48;100.00;102728.31;4989586;28;20210;-47
2022/03/07 06:50:52;;;;;;;7.88;6.80;;;;;;;-3.48;100.00;102728.31;4989853;28;20232;-44
2022/03/07 06:53:17;;;;;;;9.68;6.97;;;;;;;-3.34;100.00;102724.69;4989389;28;20186;-48
2022/03/07 06:55:43;;;;;;;11.57;7.28;;;;;;;-3.00;100.00;102728.91;4989601;28;20801;-47
2022/03/07 06:58:09;;;;;;;11.45;7.82;;;;;;;-2.61;100.00;102728.09;4989758;28;20181;-47
2022/03/07 07:00:34;;;;;;;8.07;7.20;;;;;;;-2.29;100.00;102742.72;4989954;28;20268;-46
2022/03/07 07:03:00;;;;;;;8.55;7.25;;;;;;;-1.96;100.00;102732.81;4989111;28;20213;-46
2022/03/07 07:05:25;;;;;;;9.95;7.65;;;;;;;-1.67;100.00;102731.41;4989664;28;20173;-49
2022/03/07 07:07:51;;;;;;;10.45;8.27;;;;;;;-1.32;100.00;102732.00;4989799;28;20694;-48
2022/03/07 07:10:19;;;;;;;8.70;7.63;;;;;;;-1.20;100.00;102723.75;4989968;28;20174;-47
2022/03/07 07:12:46;;;;;;;9.40;7.63;;;;;;;-0.88;100.00;102729.38;4988909;28;20216;-46
2022/03/07 07:15:12;;;;;;;8.18;7.30;;;;;;;-0.51;100.00;102723.78;4990029;28;20185;-47
2022/03/07 07:17:38;;;;;;;8.68;7.07;;;;;;;-0.19;100.00;102721.47;4989976;28;20792;-45
2022/03/07 07:20:05;;;;;;;7.22;6.53;;;;;;;0.17;98.74;102726.25;4989602;28;20190;-47
2022/03/07 07:22:30;;;;;;;8.45;6.72;;;;;;;0.46;96.76;102726.34;4988867;28;20324;-47
2022/03/07 07:24:56;;;;;;;6.97;5.72;;;;;;;0.61;95.09;102719.88;4990810;28;20268;-49
2022/03/07 07:27:21;;;;;;;8.75;6.05;;;;;;;0.86;93.71;102727.69;4993194;28;20624;-47
2022/03/07 07:29:47;;;;;;;7.28;5.72;;;;;;;1.03;91.94;102735.28;4992742;28;20193;-46
2022/03/07 07:32:12;;;;;;;8.70;5.70;;;;;;;1.21;90.70;102734.97;4992060;28;20193;-46
2022/03/07 07:34:38;;;;;;;7.85;5.78;;;;;;;1.60;89.71;102731.75;4992841;28;20177;-48
2022/03/07 07:37:03;;;;;;;9.18;5.80;;;;;;;1.82;88.33;102735.00;4992963;28;20513;-48
2022/03/07 07:39:29;;;;;;;7.13;6.30;;;;;;;2.13;86.81;102736.75;4998014;28;20836;-47
2022/03/07 07:41:56;;;;;;;6.78;5.88;;;;;;;2.25;85.68;102734.47;4992255;28;20197;-50
2022/03/07 07:44:21;;;;;;;11.43;7.35;;;;;;;2.10;84.53;102733.13;4991156;28;20181;-45
2022/03/07 07:46:47;;;;;;;12.45;7.55;;;;;;;2.33;84.44;102732.00;4992188;28;20208;-46
2022/03/07 07:49:13;;;;;;;7.03;5.95;;;;;;;2.16;84.37;102744.75;4992310;28;20643;-48
2022/03/07 07:51:38;;;;;;;7.50;6.60;;;;;;;2.34;85.13;102746.09;4991600;28;20755;-46
2022/03/07 07:54:04;;;;;;;7.38;6.57;;;;;;;2.49;85.62;102743.88;4992446;28;20182;-45
2022/03/07 07:56:29;;;;;;;7.97;6.78;;;;;;;2.86;85.82;102739.50;4991150;28;20260;-48
2022/03/07 07:58:55;;;;;;;7.30;6.47;;;;;;;2.94;85.92;102751.19;4992358;28;20260;-47
2022/03/07 08:01:21;;;;;;;8.02;6.40;;;;;;;2.84;85.68;102747.44;4992075;28;20188;-48
2022/03/07 08:03:46;;;;;;;7.55;6.60;;;;;;;3.02;86.26;102743.44;4991884;28;20198;-45
2022/03/07 08:06:12;;;;;;;8.00;6.10;;;;;;;3.42;85.78;102739.03;4992456;28;20173;-47
2022/03/07 08:08:37;;;;;;;10.80;9.25;;;;;;;3.51;84.16;102740.13;4992406;28;20192;-47
2022/03/07 08:11:03;;;;;;;10.40;8.35;;;;;;;3.46;82.90;102748.84;4991971;28;20177;-46
2022/03/07 08:13:28;;;;;;;11.13;9.13;;;;;;;3.18;82.62;102756.16;4991999;28;20268;-45
2022/03/07 08:15:54;;;;;;;14.63;11.27;;;;;;;3.19;83.30;102741.16;4990987;28;20267;-47
2022/03/07 08:18:19;;;;;;;13.13;11.73;;;;;;;3.24;83.45;102745.72;4990544;28;20632;-48
2022/03/07 08:20:45;;;;;;;11.95;10.65;;;;;;;3.19;82.94;102763.28;4991937;28;20640;-46
2022/03/07 08:23:10;;;;;;;12.43;10.90;;;;;;;3.26;82.63;102748.41;4991372;28;20205;-47
2022/03/07 08:25:36;;;;;;;12.07;9.95;;;;;;;3.50;82.11;102750.72;4991956;28;20185;-48
2022/03/07 08:28:02;;;;;;;12.30;9.50;;;;;;;3.44;81.18;102747.91;4990298;28;20549;-45
2022/03/07 08:30:28;;;;;;;12.35;10.57;;;;;;;3.62;81.10;102747.41;4991943;28;20197;-47
2022/03/07 08:32:54;;;;;;;10.50;9.23;;;;;;;3.65;81.03;102743.09;4990149;28;20189;-50
2022/03/07 08:35:21;;;;;;;10.07;9.00;;;;;;;4.13;79.59;102750.25;4990270;28;20196;-45
2022/03/07 08:37:48;;;;;;;11.02;8.13;;;;;;;4.09;78.74;102755.47;4991035;28;20296;-48
2022/03/07 08:40:15;;;;;;;7.35;6.10;;;;;;;4.31;77.54;102740.84;4991228;28;20173;-47
2022/03/07 08:42:42;;;;;;;8.25;6.10;;;;;;;4.21;76.14;102744.19;4991087;28;20542;-45
2022/03/07 08:45:08;;;;;;;11.88;6.90;;;;;;;4.13;76.61;102742.28;4991653;28;20186;-49
2022/03/07 08:47:36;;;;;;;8.93;6.90;;;;;;;4.46;76.76;102746.44;4991751;28;20268;-48
2022/03/07 08:50:02;;;;;;;6.93;5.97;;;;;;;4.80;76.50;102751.44;4991615;28;20228;-48
2022/03/07 08:52:27;;;;;;;8.73;6.07;;;;;;;4.74;74.88;102747.81;4990660;28;20189;-49
2022/03/07 08:54:52;;;;;;;7.95;6.10;;;;;;;4.74;75.15;102736.28;4991613;28;20655;-48
2022/03/07 08:57:18;;;;;;;6.25;4.82;;;;;;;4.91;74.95;102726.81;4989665;28;20193;-48
2022/03/07 08:59:44;;;;;;;7.78;5.50;;;;;;;4.77;74.82;102735.41;4987951;28;20212;-49
2022/03/07 09:02:09;;;;;;;5.50;4.95;;;;;;;4.72;75.22;102730.03;4989352;28;20298;-48
2022/03/07 09:04:36;;;;;;;7.00;5.03;;;;;;;5.01;74.87;102734.91;4989471;28;20208;-46
2022/03/07 09:07:02;;;;;;;7.18;4.90;;;;;;;5.17;74.89;102739.63;4989415;28;20180;-48
2022/03/07 09:09:28;;;;;;;9.18;5.60;;;;;;;5.28;75.58;102739.78;4989461;28;20598;-47
2022/03/07 09:11:54;;;;;;;6.80;4.38;;;;;;;4.98;74.95;102757.03;4988957;28;20251;-47
2022/03/07 09:14:19;;;;;;;8.43;4.90;;;;;;;4.83;75.08;102756.78;4990205;28;20209;-45
2022/03/07 09:16:45;;;;;;;5.95;5.35;;;;;;;5.01;75.32;102751.78;4990804;28;20200;-46
2022/03/07 09:19:11;;;;;;;8.70;5.20;;;;;;;5.28;75.20;102755.72;4990799;28;20216;-48
2022/03/07 09:21:36;;;;;;;5.22;4.20;;;;;;;5.16;74.57;102756.44;4990602;28;20635;-47
2022/03/07 09:24:02;;;;;;;8.15;4.88;;;;;;;5.39;73.94;102766.50;4990131;28;20255;-47
2022/03/07 09:26:27;;;;;;;6.13;4.70;;;;;;;4.96;74.28;102758.75;4990656;28;20178;-47
2022/03/07 09:28:52;;;;;;;6.65;4.85;;;;;;;5.27;75.01;102756.56;4990222;28;20800;-48
2022/03/07 09:31:18;;;;;;;6.47;4.45;;;;;;;5.48;74.92;102762.19;4990617;28;20227;-47
2022/03/07 09:33:44;;;;;;;7.13;5.38;;;;;;;5.47;74.30;102756.88;4990184;28;20188;-46
2022/03/07 09:36:09;;;;;;;7.18;4.93;;;;;;;5.52;74.23;102771.13;4990457;28;20260;-47
2022/03/07 09:38:36;;;;;;;6.32;5.07;;;;;;;5.58;73.42;102768.56;4990851;28;20201;-46
2022/03/07 09:41:04;;;;;;;7.53;5.43;;;;;;;5.76;74.14;102760.81;4990116;28;20189;-48
2022/03/07 09:43:29;;;;;;;7.13;4.68;;;;;;;5.86;73.72;102766.22;4987980;28;20588;-48
2022/03/07 09:45:55;;;;;;;7.63;5.20;;;;;;;6.05;73.16;102768.28;4990309;28;20173;-48
2022/03/07 09:48:24;;;;;;;5.75;5.25;;;;;;;5.91;73.41;102767.22;4989778;28;20656;-47
2022/03/07 09:50:51;;;;;;;7.85;5.38;;;;;;;5.88;73.91;102770.72;4990096;28;20251;-48
2022/03/07 09:53:17;;;;;;;9.38;5.70;;;;;;;5.82;73.77;102775.97;4989592;28;20689;-46
2022/03/07 09:55:44;;;;;;;6.25;5.45;;;;;;;5.76;74.34;102776.75;4990369;28;20647;-46
2022/03/07 09:58:10;;;;;;;8.30;5.53;;;;;;;5.78;74.83;102776.78;4990187;28;20174;-48
2022/03/07 10:00:38;;;;;;;7.00;5.32;;;;;;;5.66;73.67;102769.53;4989954;28;20169;-47
2022/03/07 10:03:05;;;;;;;7.88;4.97;;;;;;;5.39;74.98;102775.38;4989623;28;20671;-48
2022/03/07 10:05:36;;;;;;;7.93;5.25;;;;;;;4.88;76.73;102774.59;4990097;28;20252;-47
2022/03/07 10:08:03;;;;;;;7.97;5.25;;;;;;;4.74;77.91;102778.75;4989908;28;20168;-45
2022/03/07 10:10:32;;;;;;;7.03;5.25;;;;;;;4.83;78.38;102770.97;4990083;28;20177;-46
2022/03/07 10:13:05;;;;;;;8.73;5.13;;;;;;;4.89;78.25;102778.13;4989166;28;20200;-46
2022/03/07 10:15:31;;;;;;;5.75;4.53;;;;;;;4.86;77.64;102778.09;4990184;28;20260;-47
2022/03/07 10:17:56;;;;;;;7.10;4.45;;;;;;;4.91;75.91;102777.28;4972265;28;20701;-46
2022/03/07 10:20:25;;;;;;;3.58;3.20;;;;;;;5.28;72.85;102775.22;4990014;28;20255;-46
2022/03/07 10:22:57;;;;;;;4.50;2.20;;;;;;;5.31;67.79;102780.59;4989287;28;20205;-47
2022/03/07 10:25:28;;;;;;;2.90;2.10;;;;;;;5.35;66.22;102773.53;4988126;28;20216;-46
2022/03/07 10:27:54;;;;;;;5.80;2.00;;;;;;;5.45;66.05;102778.13;4989596;28;20180;-47
2022/03/07 10:30:25;;;;;;;4.57;1.85;;;;;;;5.55;64.69;102779.13;4989181;28;20193;-45
2022/03/07 10:32:59;;;;;;;3.95;1.80;;;;;;;5.66;63.74;102768.63;4989376;28;20186;-45
2022/03/07 10:35:30;;;;;;;3.90;1.65;;;;;;;5.69;62.81;102774.91;4989697;28;20169;-45
2022/03/07 10:38:06;;;;;;;3.78;1.80;;;;;;;5.73;62.98;102767.88;4989759;28;20176;-45
2022/03/07 10:40:34;;;;;;;6.03;1.48;;;;;;;5.74;62.27;102759.88;4990010;28;20247;-46
2022/03/07 10:43:01;;;;;;;4.32;1.38;;;;;;;5.67;61.58;102776.66;4988890;28;20296;-48
2022/03/07 10:45:31;;;;;;;3.33;1.38;;;;;;;5.71;61.25;102775.81;4989871;28;20185;-46
2022/03/07 10:48:00;;;;;;;2.97;1.40;;;;;;;5.67;60.81;102766.00;4989500;28;20265;-45
2022/03/07 10:50:29;;;;;;;3.53;1.27;;;;;;;5.68;60.56;102761.56;4989547;28;20613;-45
2022/03/07 10:53:00;;;;;;;2.42;1.52;;;;;;;5.84;60.69;102760.91;4989228;28;20565;-47
2022/03/07 10:55:27;;;;;;;1.45;1.10;;;;;;;5.71;59.62;102765.19;4989537;28;20173;-46
2022/03/07 10:58:10;;;;;;;1.77;1.30;;;;;;;5.87;59.69;102765.38;4987546;28;20683;-46
2022/03/07 11:00:56;;;;;;;1.33;0.80;;;;;;;5.84;58.18;102763.56;4989817;28;20174;-45
2022/03/07 11:03:29;;;;;;;3.53;1.70;;;;;;;5.80;58.73;102763.53;4991837;28;20232;-46
2022/03/07 11:05:56;;;;;;;2.35;1.83;;;;;;;5.87;60.04;102758.28;4993273;28;20548;-45
2022/03/07 11:08:22;;;;;;;2.58;2.10;;;;;;;5.91;60.02;102756.56;4991823;28;20169;-47
2022/03/07 11:10:53;;;;;;;2.78;1.80;;;;;;;5.81;60.32;102763.53;4992814;28;20639;-46
2022/03/07 11:13:25;;;;;;;4.47;2.05;;;;;;;5.83;60.29;102760.88;4992741;28;20193;-48
2022/03/07 11:15:53;;;;;;;3.47;1.85;;;;;;;5.92;61.17;102761.00;4992822;28;20505;-46
2022/03/07 11:18:19;;;;;;;2.65;1.60;;;;;;;5.83;60.74;102766.22;4993026;28;20166;-44